4XCWZ LLHZ-LLBG
Flight info
| Callsign | 4XCWZ |
|---|---|
| Flight time | 0h -7m |
| Altitude | 1200 |
| Route | SFAIM APOLN ARENA HTZUK RIDNG ROKCH PARDS |
| Aircraft | C172/L-SD/C |
Departure
| Time | 2026-04-22 17:59 |
|---|---|
| Airport | Herzliya Airport (LLHZ) |
Arrival
| Time | 2026-04-22 17:52 |
|---|---|
| Airport | Ben Gurion International Airport (LLBG) |
| Time | Latitude | Longitude | Altitude | Speed | Heading |
|---|---|---|---|---|---|
| 2026-04-22 17:52 | 32.18080 | 34.83107 | 103 ft | 0 kts | 20° |
| 2026-04-22 17:56 | 32.18085 | 34.83153 | 104 ft | 14 kts | 107° |
| 2026-04-22 17:56 | 32.18041 | 34.83299 | 106 ft | 19 kts | 108° |
| 2026-04-22 17:56 | 32.17997 | 34.83451 | 110 ft | 23 kts | 108° |
| 2026-04-22 17:56 | 32.17942 | 34.83638 | 116 ft | 22 kts | 108° |
| 2026-04-22 17:57 | 32.17900 | 34.83777 | 121 ft | 14 kts | 109° |
| 2026-04-22 17:57 | 32.17882 | 34.83834 | 123 ft | 0 kts | 104° |
| 2026-04-22 17:58 | 32.17881 | 34.83837 | 123 ft | 4 kts | 103° |
| 2026-04-22 17:58 | 32.17920 | 34.83831 | 127 ft | 12 kts | 290° |
| 2026-04-22 17:58 | 32.18009 | 34.83531 | 111 ft | 66 kts | 289° |
| 2026-04-22 17:59 | 32.18214 | 34.83004 | 311 ft | 66 kts | 315° |
| 2026-04-22 17:59 | 32.18579 | 34.82653 | 474 ft | 68 kts | 349° |
| 2026-04-22 17:59 | 32.19035 | 34.82686 | 689 ft | 66 kts | 18° |
| 2026-04-22 17:59 | 32.19484 | 34.82843 | 848 ft | 80 kts | 351° |
| 2026-04-22 18:00 | 32.19764 | 34.82515 | 870 ft | 90 kts | 308° |
| 2026-04-22 18:00 | 32.20093 | 34.81569 | 1031 ft | 78 kts | 300° |
| 2026-04-22 18:00 | 32.20242 | 34.80964 | 1310 ft | 79 kts | 292° |
| 2026-04-22 18:00 | 32.20386 | 34.80240 | 1265 ft | 109 kts | 292° |
| 2026-04-22 18:01 | 32.20616 | 34.79407 | 1214 ft | 101 kts | 310° |
| 2026-04-22 18:01 | 32.21165 | 34.79077 | 1222 ft | 88 kts | 2° |
| 2026-04-22 18:01 | 32.21702 | 34.79382 | 1180 ft | 95 kts | 57° |
| 2026-04-22 18:01 | 32.21499 | 34.80141 | 1147 ft | 115 kts | 142° |
| 2026-04-22 18:02 | 32.20730 | 34.80178 | 1184 ft | 119 kts | 195° |
| 2026-04-22 18:02 | 32.19943 | 34.79884 | 1157 ft | 118 kts | 202° |
| 2026-04-22 18:02 | 32.19169 | 34.79537 | 1171 ft | 119 kts | 201° |
| 2026-04-22 18:02 | 32.18402 | 34.79229 | 1233 ft | 119 kts | 196° |
| 2026-04-22 18:03 | 32.17606 | 34.78943 | 1259 ft | 120 kts | 198° |
| 2026-04-22 18:03 | 32.16772 | 34.78673 | 1220 ft | 124 kts | 197° |
| 2026-04-22 18:03 | 32.15971 | 34.78351 | 1249 ft | 119 kts | 201° |
| 2026-04-22 18:03 | 32.15187 | 34.78090 | 1276 ft | 117 kts | 197° |
| 2026-04-22 18:04 | 32.14382 | 34.77835 | 1239 ft | 119 kts | 195° |
| 2026-04-22 18:04 | 32.13594 | 34.77600 | 1277 ft | 116 kts | 196° |
| 2026-04-22 18:04 | 32.12797 | 34.77358 | 1247 ft | 122 kts | 194° |
| 2026-04-22 18:04 | 32.11956 | 34.77250 | 1246 ft | 118 kts | 162° |
| 2026-04-22 18:05 | 32.11441 | 34.77886 | 1248 ft | 112 kts | 114° |
| 2026-04-22 18:05 | 32.11080 | 34.78694 | 1282 ft | 114 kts | 114° |
| 2026-04-22 18:05 | 32.10697 | 34.79532 | 1291 ft | 115 kts | 111° |
| 2026-04-22 18:05 | 32.10435 | 34.80446 | 1238 ft | 113 kts | 94° |
| 2026-04-22 18:06 | 32.10385 | 34.81352 | 1275 ft | 111 kts | 89° |
| 2026-04-22 18:06 | 32.10371 | 34.82273 | 1180 ft | 111 kts | 87° |
| 2026-04-22 18:06 | 32.10366 | 34.83133 | 1262 ft | 103 kts | 84° |
| 2026-04-22 18:06 | 32.10330 | 34.83975 | 1294 ft | 104 kts | 97° |
| 2026-04-22 18:07 | 32.09836 | 34.84635 | 1283 ft | 118 kts | 156° |
| 2026-04-22 18:07 | 32.09011 | 34.84746 | 1258 ft | 122 kts | 181° |
| 2026-04-22 18:07 | 32.08178 | 34.84667 | 1235 ft | 118 kts | 186° |
| 2026-04-22 18:07 | 32.07357 | 34.84477 | 1307 ft | 122 kts | 192° |
| 2026-04-22 18:08 | 32.06526 | 34.84283 | 1397 ft | 121 kts | 192° |
| 2026-04-22 18:08 | 32.05665 | 34.84185 | 1255 ft | 129 kts | 184° |
| 2026-04-22 18:08 | 32.04788 | 34.84072 | 1272 ft | 124 kts | 187° |
| 2026-04-22 18:08 | 32.03934 | 34.83896 | 1276 ft | 126 kts | 194° |
| 2026-04-22 18:09 | 32.03078 | 34.83644 | 1176 ft | 132 kts | 195° |
| 2026-04-22 18:09 | 32.02488 | 34.84098 | 1026 ft | 108 kts | 99° |
| 2026-04-22 18:09 | 32.02306 | 34.84947 | 689 ft | 110 kts | 106° |
| 2026-04-22 18:09 | 32.01956 | 34.85653 | 672 ft | 86 kts | 121° |
| 2026-04-22 18:10 | 32.01671 | 34.86193 | 465 ft | 78 kts | 114° |
| 2026-04-22 18:10 | 32.01391 | 34.86732 | 218 ft | 74 kts | 116° |
| 2026-04-22 18:10 | 32.01125 | 34.87249 | 139 ft | 64 kts | 116° |
| 2026-04-22 18:10 | 32.00941 | 34.87607 | 117 ft | 41 kts | 122° |
| 2026-04-22 18:11 | 32.00815 | 34.87851 | 116 ft | 29 kts | 121° |
| 2026-04-22 18:11 | 32.00750 | 34.88014 | 115 ft | 17 kts | 76° |
| 2026-04-22 18:11 | 32.00827 | 34.88091 | 115 ft | 0 kts | 32° |
| 2026-04-22 18:12 | 32.00862 | 34.88115 | 115 ft | 10 kts | 28° |
| 2026-04-22 18:12 | 32.00911 | 34.88201 | 115 ft | 14 kts | 109° |
| 2026-04-22 18:12 | 32.00878 | 34.88265 | 115 ft | 12 kts | 118° |
| 2026-04-22 18:12 | 32.00805 | 34.88410 | 115 ft | 17 kts | 124° |